Time;durP1;ratioP1;P1;durP2;ratioP2;P2;SDS_P1;SDS_P2;PMS_P1;PMS_P2;Temp;Humidity;BMP_temperature;BMP_pressure;BME280_temperature;BME280_humidity;BME280_pressure;Samples;Min_cycle;Max_cycle;Signal;HPM_P1;HPM_P2
2022/11/24 00:02:14;;;;;;;55.13;23.08;;;;;;;;;;5092103;28;20027;-74
2022/11/24 00:04:40;;;;;;;36.70;11.65;;;;;;;;;;5074499;28;20024;-74
2022/11/24 00:07:06;;;;;;;49.30;13.43;;;;;;;;;;5074322;28;20039;-74
2022/11/24 00:09:33;;;;;;;43.63;13.50;;;;;;;;;;5092448;28;20046;-74
2022/11/24 00:12:00;;;;;;;41.88;12.05;;;;;;;;;;5092535;28;20027;-74
2022/11/24 00:14:26;;;;;;;33.30;11.93;;;;;;;;;;5092434;28;20061;-74
2022/11/24 00:16:52;;;;;;;33.03;9.02;;;;;;;;;;5092559;28;20012;-74
2022/11/24 00:19:19;;;;;;;31.50;9.13;;;;;;;;;;5092639;28;20028;-74
2022/11/24 00:21:45;;;;;;;43.42;11.35;;;;;;;;;;5091748;28;20024;-74
2022/11/24 00:24:11;;;;;;;26.45;7.32;;;;;;;;;;5092008;28;20032;-73
2022/11/24 00:26:38;;;;;;;29.67;6.68;;;;;;;;;;5092214;28;20054;-74
2022/11/24 00:29:06;;;;;;;28.25;6.38;;;;;;;;;;5074312;28;20024;-74
2022/11/24 00:31:36;;;;;;;28.48;7.05;;;;;;;;;;5092290;28;20016;-74
2022/11/24 00:34:04;;;;;;;36.17;7.47;;;;;;;;;;5092257;28;20028;-74
2022/11/24 00:36:31;;;;;;;50.50;15.35;;;;;;;;;;5092122;28;20024;-74
2022/11/24 00:38:58;;;;;;;53.97;15.68;;;;;;;;;;5091846;28;20515;-74
2022/11/24 00:41:25;;;;;;;48.65;22.83;;;;;;;;;;5079419;28;20025;-73
2022/11/24 00:43:52;;;;;;;65.25;25.33;;;;;;;;;;5071840;28;20025;-73
2022/11/24 00:46:18;;;;;;;50.70;16.00;;;;;;;;;;5072303;28;20028;-73
2022/11/24 00:48:45;;;;;;;141.38;41.35;;;;;;;;;;5064056;28;20033;-73
2022/11/24 00:51:12;;;;;;;179.73;57.63;;;;;;;;;;5071819;28;20058;-73
2022/11/24 00:53:39;;;;;;;109.70;36.08;;;;;;;;;;5071700;28;20033;-74
2022/11/24 00:56:06;;;;;;;79.13;24.02;;;;;;;;;;5071693;28;20031;-74
2022/11/24 00:58:32;;;;;;;46.25;16.15;;;;;;;;;;5071603;28;20039;-74
2022/11/24 01:01:03;;;;;;;28.00;9.13;;;;;;;;;;5071785;28;20029;-74
2022/11/24 01:03:29;;;;;;;25.98;7.13;;;;;;;;;;5071312;28;20173;-73
2022/11/24 01:05:56;;;;;;;28.67;6.40;;;;;;;;;;5071390;28;20050;-74
2022/11/24 01:08:22;;;;;;;23.67;5.55;;;;;;;;;;5071594;28;20031;-74
2022/11/24 01:10:48;;;;;;;28.42;6.18;;;;;;;;;;5071734;28;20387;-74
2022/11/24 01:13:15;;;;;;;24.80;5.30;;;;;;;;;;5071793;28;20027;-74
2022/11/24 01:15:41;;;;;;;30.50;6.22;;;;;;;;;;5071522;28;20021;-74
2022/11/24 01:18:07;;;;;;;25.50;5.78;;;;;;;;;;5071742;28;20492;-74
2022/11/24 01:20:34;;;;;;;22.83;6.75;;;;;;;;;;5071555;28;20020;-74
2022/11/24 01:23:00;;;;;;;28.42;10.20;;;;;;;;;;5071311;28;20033;-74
2022/11/24 01:25:26;;;;;;;40.95;11.02;;;;;;;;;;5073279;28;20017;-75
2022/11/24 01:27:52;;;;;;;68.13;17.25;;;;;;;;;;5075482;28;20047;-74
2022/11/24 01:30:20;;;;;;;42.50;11.73;;;;;;;;;;5075083;28;20416;-74
2022/11/24 01:32:47;;;;;;;35.67;8.48;;;;;;;;;;5075100;28;20017;-74
2022/11/24 01:35:13;;;;;;;23.88;4.88;;;;;;;;;;5074686;28;20021;-74
2022/11/24 01:37:39;;;;;;;29.13;4.88;;;;;;;;;;5074886;28;20489;-74
2022/11/24 01:40:06;;;;;;;23.33;5.38;;;;;;;;;;5076056;28;20024;-74
2022/11/24 01:42:53;;;;;;;22.25;4.63;;;;;;;;;;5094724;28;20042;-74
2022/11/24 01:45:34;;;;;;;23.98;4.45;;;;;;;;;;5095313;28;20051;-74
2022/11/24 01:48:04;;;;;;;24.13;5.50;;;;;;;;;;5095268;28;20032;-74
2022/11/24 01:50:30;;;;;;;19.95;4.22;;;;;;;;;;5094769;28;20399;-74
2022/11/24 01:52:57;;;;;;;22.65;4.65;;;;;;;;;;5095401;28;20024;-74
2022/11/24 01:55:26;;;;;;;21.90;4.05;;;;;;;;;;5094932;28;20392;-74
2022/11/24 01:58:14;;;;;;;19.17;3.88;;;;;;;;;;5095336;28;20028;-74
2022/11/24 02:00:41;;;;;;;31.17;5.95;;;;;;;;;;5095055;28;20020;-74
2022/11/24 02:03:08;;;;;;;28.98;7.88;;;;;;;;;;5094380;28;20032;-74
2022/11/24 02:05:41;;;;;;;26.13;6.07;;;;;;;;;;5094673;28;20477;-74
2022/11/24 02:08:11;;;;;;;32.85;9.93;;;;;;;;;;5094944;28;20477;-74
2022/11/24 02:10:37;;;;;;;26.63;5.72;;;;;;;;;;5095295;28;20032;-74
2022/11/24 02:13:04;;;;;;;29.95;7.70;;;;;;;;;;5094761;28;20030;-74
2022/11/24 02:15:30;;;;;;;35.85;11.98;;;;;;;;;;5094780;28;20024;-74
2022/11/24 02:17:58;;;;;;;31.90;10.00;;;;;;;;;;5094500;28;20040;-74
2022/11/24 02:20:24;;;;;;;26.48;6.63;;;;;;;;;;5094135;28;20477;-74
2022/11/24 02:23:10;;;;;;;24.70;6.43;;;;;;;;;;5094299;28;20036;-74
2022/11/24 02:26:14;;;;;;;30.35;5.70;;;;;;;;;;5094886;28;20020;-74
2022/11/24 02:28:41;;;;;;;24.02;5.72;;;;;;;;;;5032283;28;20022;-74
2022/11/24 02:31:07;;;;;;;20.20;5.00;;;;;;;;;;5032026;28;20040;-73
2022/11/24 02:33:33;;;;;;;27.33;5.75;;;;;;;;;;5031682;28;20437;-74
2022/11/24 02:36:00;;;;;;;23.08;6.32;;;;;;;;;;5031154;28;20171;-74
2022/11/24 02:38:33;;;;;;;31.48;6.97;;;;;;;;;;5031167;28;20425;-74
2022/11/24 02:41:02;;;;;;;28.23;8.80;;;;;;;;;;5031648;28;20047;-74
2022/11/24 02:43:29;;;;;;;33.95;9.35;;;;;;;;;;5031052;28;20049;-74
2022/11/24 02:45:55;;;;;;;25.88;7.97;;;;;;;;;;5031638;28;20033;-74
2022/11/24 02:48:22;;;;;;;32.58;9.70;;;;;;;;;;5031198;28;20030;-74
2022/11/24 02:50:48;;;;;;;29.98;9.15;;;;;;;;;;5031726;28;20033;-74
2022/11/24 02:53:14;;;;;;;30.13;9.55;;;;;;;;;;5031617;28;20181;-74
2022/11/24 02:55:41;;;;;;;26.38;9.55;;;;;;;;;;5031538;28;20409;-74
2022/11/24 02:58:07;;;;;;;44.70;10.45;;;;;;;;;;5031605;28;20022;-74
2022/11/24 03:00:33;;;;;;;34.85;9.77;;;;;;;;;;5091112;28;20038;-74
2022/11/24 03:03:00;;;;;;;30.30;9.98;;;;;;;;;;5093211;28;20077;-74
2022/11/24 03:05:26;;;;;;;36.13;11.40;;;;;;;;;;5093690;28;20012;-74
2022/11/24 03:07:52;;;;;;;59.10;21.13;;;;;;;;;;5093675;28;20096;-74
2022/11/24 03:10:19;;;;;;;60.22;20.33;;;;;;;;;;5075595;28;20071;-74
2022/11/24 03:12:45;;;;;;;37.22;14.02;;;;;;;;;;5093884;28;20068;-74
2022/11/24 03:15:11;;;;;;;29.38;9.50;;;;;;;;;;5093424;28;20072;-74
2022/11/24 03:17:38;;;;;;;31.52;9.68;;;;;;;;;;5093182;28;20016;-73
2022/11/24 03:20:04;;;;;;;26.85;8.40;;;;;;;;;;5093267;28;20477;-73
2022/11/24 03:22:30;;;;;;;32.90;8.70;;;;;;;;;;5093092;28;20024;-73
2022/11/24 03:24:58;;;;;;;32.38;11.05;;;;;;;;;;5093127;28;20012;-74
2022/11/24 03:27:24;;;;;;;31.13;8.73;;;;;;;;;;5093256;28;20038;-73
2022/11/24 03:29:50;;;;;;;30.15;8.07;;;;;;;;;;5093265;28;20016;-74
2022/11/24 03:32:17;;;;;;;31.05;8.63;;;;;;;;;;5093060;28;20024;-74
2022/11/24 03:34:43;;;;;;;34.40;9.52;;;;;;;;;;5092980;28;20549;-74
2022/11/24 03:37:09;;;;;;;35.75;10.45;;;;;;;;;;5093242;28;20044;-74
2022/11/24 03:39:35;;;;;;;34.83;9.77;;;;;;;;;;5092931;28;20051;-74
2022/11/24 03:42:02;;;;;;;31.63;10.25;;;;;;;;;;5075325;28;20044;-74
2022/11/24 03:44:28;;;;;;;34.95;9.25;;;;;;;;;;5054596;28;20041;-74
2022/11/24 03:46:54;;;;;;;34.95;9.60;;;;;;;;;;5072510;28;20028;-74
2022/11/24 03:49:21;;;;;;;45.55;13.25;;;;;;;;;;5072240;28;20035;-74
2022/11/24 03:51:47;;;;;;;39.50;13.73;;;;;;;;;;5072417;28;20511;-73
2022/11/24 03:54:13;;;;;;;33.35;9.60;;;;;;;;;;5072416;28;20031;-74
2022/11/24 03:56:39;;;;;;;27.20;7.68;;;;;;;;;;5072844;28;20038;-74
2022/11/24 03:59:06;;;;;;;29.95;6.07;;;;;;;;;;5072948;28;20032;-74
2022/11/24 04:01:32;;;;;;;24.80;5.63;;;;;;;;;;5072038;28;20024;-74
2022/11/24 04:03:58;;;;;;;24.33;4.90;;;;;;;;;;5071854;28;20488;-74
2022/11/24 04:06:25;;;;;;;22.70;4.72;;;;;;;;;;5072283;28;20031;-74
2022/11/24 04:08:51;;;;;;;28.48;7.45;;;;;;;;;;5072323;28;20031;-74
2022/11/24 04:14:02;;;;;;;19.80;5.70;;;;;;;;;;5072311;28;20027;-74
2022/11/24 04:16:29;;;;;;;30.00;7.05;;;;;;;;;;5071699;28;20032;-74
2022/11/24 04:18:55;;;;;;;26.95;8.60;;;;;;;;;;5072468;28;20025;-74
2022/11/24 04:21:21;;;;;;;25.58;5.57;;;;;;;;;;5072210;28;20032;-74
2022/11/24 04:23:47;;;;;;;64.25;21.73;;;;;;;;;;5071740;28;20025;-74
2022/11/24 04:26:14;;;;;;;33.13;7.15;;;;;;;;;;5072317;28;20500;-74
2022/11/24 04:28:40;;;;;;;30.33;7.95;;;;;;;;;;5072039;28;20035;-74
2022/11/24 04:31:07;;;;;;;25.20;8.20;;;;;;;;;;5071719;28;20032;-74
2022/11/24 04:33:33;;;;;;;30.00;8.38;;;;;;;;;;5072104;28;20083;-74
2022/11/24 04:35:59;;;;;;;29.05;8.20;;;;;;;;;;5071898;28;20021;-74
2022/11/24 04:38:26;;;;;;;35.30;9.52;;;;;;;;;;5071703;28;20062;-74
2022/11/24 04:40:52;;;;;;;40.60;12.85;;;;;;;;;;5079283;28;20027;-74
2022/11/24 04:43:20;;;;;;;35.15;12.38;;;;;;;;;;5091359;28;20396;-74
2022/11/24 04:45:47;;;;;;;44.05;11.48;;;;;;;;;;5091901;28;20020;-74
2022/11/24 04:48:13;;;;;;;32.20;10.30;;;;;;;;;;5091889;28;20031;-74
2022/11/24 04:50:39;;;;;;;37.63;9.82;;;;;;;;;;5091028;28;20028;-74
2022/11/24 04:53:06;;;;;;;36.90;10.00;;;;;;;;;;5091993;28;20423;-74
2022/11/24 04:55:32;;;;;;;33.60;10.15;;;;;;;;;;5091997;28;20081;-74
2022/11/24 04:57:58;;;;;;;38.50;12.45;;;;;;;;;;5091772;28;20518;-74
2022/11/24 05:00:24;;;;;;;35.47;11.38;;;;;;;;;;5092408;28;20028;-74
2022/11/24 05:02:51;;;;;;;32.42;10.98;;;;;;;;;;5095734;28;20366;-74
2022/11/24 05:05:17;;;;;;;28.63;11.07;;;;;;;;;;5095547;28;20073;-74
2022/11/24 05:07:43;;;;;;;48.53;16.83;;;;;;;;;;5087355;28;20028;-74
2022/11/24 05:12:55;;;;;;;49.47;17.67;;;;;;;;;;5095611;28;20412;-74
2022/11/24 05:15:22;;;;;;;42.40;13.65;;;;;;;;;;5095778;28;20020;-74
2022/11/24 05:17:48;;;;;;;26.25;8.90;;;;;;;;;;5095675;28;20042;-74
2022/11/24 05:20:15;;;;;;;33.58;9.43;;;;;;;;;;5095980;28;20024;-74
2022/11/24 05:22:41;;;;;;;38.10;10.40;;;;;;;;;;5095638;28;20043;-74
2022/11/24 05:25:07;;;;;;;34.00;10.35;;;;;;;;;;5094985;28;20016;-74
2022/11/24 05:27:37;;;;;;;24.98;9.20;;;;;;;;;;5095342;28;20469;-74
2022/11/24 05:30:03;;;;;;;40.05;10.80;;;;;;;;;;5095427;28;20366;-74
2022/11/24 05:32:30;;;;;;;33.85;9.60;;;;;;;;;;5095415;28;20024;-74
2022/11/24 05:34:57;;;;;;;33.38;9.35;;;;;;;;;;5095412;28;20487;-74
2022/11/24 05:37:24;;;;;;;25.80;6.20;;;;;;;;;;5095496;28;20362;-74
2022/11/24 05:39:50;;;;;;;21.25;6.20;;;;;;;;;;5095226;28;20051;-74
2022/11/24 05:45:02;;;;;;;37.75;13.55;;;;;;;;;;5074812;28;20016;-74
2022/11/24 05:47:28;;;;;;;42.75;15.85;;;;;;;;;;5075286;28;20029;-74
2022/11/24 05:49:55;;;;;;;26.77;9.57;;;;;;;;;;5075104;28;20495;-74
2022/11/24 05:52:21;;;;;;;25.05;8.95;;;;;;;;;;5074807;28;20024;-74
2022/11/24 05:54:47;;;;;;;23.98;5.60;;;;;;;;;;5074932;28;20039;-74
2022/11/24 05:57:15;;;;;;;16.65;5.10;;;;;;;;;;5074650;28;20499;-74
2022/11/24 05:59:42;;;;;;;30.80;9.02;;;;;;;;;;5074665;28;20036;-74
2022/11/24 06:02:08;;;;;;;28.55;7.72;;;;;;;;;;5074646;28;20036;-74
2022/11/24 06:04:35;;;;;;;23.75;8.05;;;;;;;;;;5074004;28;20484;-74
2022/11/24 06:07:02;;;;;;;27.00;9.35;;;;;;;;;;5074444;28;20038;-74
2022/11/24 06:09:29;;;;;;;30.45;9.15;;;;;;;;;;5074801;28;20020;-74
2022/11/24 06:11:55;;;;;;;31.30;10.38;;;;;;;;;;5073859;28;20020;-74
2022/11/24 06:14:21;;;;;;;29.45;10.68;;;;;;;;;;5074322;28;20371;-74
2022/11/24 06:16:48;;;;;;;20.33;8.32;;;;;;;;;;5074389;28;20055;-74
2022/11/24 06:19:14;;;;;;;29.85;8.75;;;;;;;;;;5074542;28;20031;-74
2022/11/24 06:21:40;;;;;;;28.63;10.15;;;;;;;;;;5056373;28;20032;-74
2022/11/24 06:24:07;;;;;;;31.42;8.35;;;;;;;;;;5074047;28;20078;-74
2022/11/24 06:26:33;;;;;;;35.63;10.40;;;;;;;;;;5073862;28;20028;-74
2022/11/24 06:29:00;;;;;;;32.70;17.02;;;;;;;;;;5074047;28;20097;-74
2022/11/24 06:31:26;;;;;;;43.30;15.32;;;;;;;;;;5074284;28;20027;-74
2022/11/24 06:33:52;;;;;;;35.33;13.48;;;;;;;;;;5074050;28;20032;-74
2022/11/24 06:36:19;;;;;;;29.95;10.23;;;;;;;;;;5056297;28;20044;-73
2022/11/24 06:38:45;;;;;;;20.75;6.70;;;;;;;;;;5073883;28;20040;-77
2022/11/24 06:41:13;;;;;;;19.48;6.05;;;;;;;;;;5083658;28;20381;-74
2022/11/24 06:43:40;;;;;;;43.42;16.58;;;;;;;;;;5093806;28;20042;-74
2022/11/24 06:46:06;;;;;;;37.42;14.32;;;;;;;;;;5093722;28;20022;-74
2022/11/24 06:48:32;;;;;;;28.85;10.80;;;;;;;;;;5093984;28;20366;-74
2022/11/24 06:51:03;;;;;;;35.83;13.43;;;;;;;;;;5093857;28;20382;-74
2022/11/24 06:53:30;;;;;;;71.95;28.33;;;;;;;;;;5093945;28;20064;-74
2022/11/24 06:56:00;;;;;;;50.60;18.27;;;;;;;;;;5092074;28;20395;-74
2022/11/24 06:58:26;;;;;;;52.83;17.27;;;;;;;;;;5094120;28;20024;-74
2022/11/24 07:00:53;;;;;;;50.47;15.73;;;;;;;;;;5093878;28;20019;-74
2022/11/24 07:03:19;;;;;;;69.38;15.93;;;;;;;;;;5093336;28;20035;-74
2022/11/24 07:05:45;;;;;;;77.70;15.73;;;;;;;;;;5093268;28;20031;-74
2022/11/24 07:08:12;;;;;;;66.15;16.33;;;;;;;;;;5093708;28;20039;-74
2022/11/24 07:10:38;;;;;;;89.07;17.42;;;;;;;;;;5093399;28;20049;-74
2022/11/24 07:13:08;;;;;;;94.13;18.73;;;;;;;;;;5076150;28;20012;-73
2022/11/24 07:15:34;;;;;;;119.95;21.40;;;;;;;;;;5089116;28;20031;-73
2022/11/24 07:18:00;;;;;;;100.53;22.05;;;;;;;;;;5113253;28;20012;-73
2022/11/24 07:20:27;;;;;;;56.35;21.52;;;;;;;;;;5108493;28;20027;-73
2022/11/24 07:22:57;;;;;;;83.53;28.13;;;;;;;;;;5071697;28;20047;-74
2022/11/24 07:25:24;;;;;;;59.67;20.00;;;;;;;;;;5092444;28;20485;-74
2022/11/24 07:27:55;;;;;;;77.85;21.95;;;;;;;;;;5093064;28;20020;-74
2022/11/24 07:30:21;;;;;;;63.22;20.88;;;;;;;;;;5092639;28;20505;-74
2022/11/24 07:32:48;;;;;;;41.83;17.50;;;;;;;;;;5092745;28;20389;-74
2022/11/24 07:35:14;;;;;;;40.10;16.95;;;;;;;;;;5089963;28;20088;-74
2022/11/24 07:37:40;;;;;;;38.33;17.02;;;;;;;;;;5091397;28;20024;-74
2022/11/24 07:40:07;;;;;;;33.15;14.88;;;;;;;;;;5093191;28;20027;-74
2022/11/24 07:42:33;;;;;;;29.30;13.65;;;;;;;;;;5072238;28;20081;-74
2022/11/24 07:45:00;;;;;;;34.17;16.58;;;;;;;;;;5076722;28;20444;-74
2022/11/24 07:47:26;;;;;;;76.28;41.33;;;;;;;;;;5072019;28;20050;-74
2022/11/24 07:49:52;;;;;;;36.03;13.68;;;;;;;;;;5072143;28;20020;-74
2022/11/24 07:52:19;;;;;;;33.72;12.63;;;;;;;;;;5077868;28;20020;-74
2022/11/24 07:54:45;;;;;;;36.65;12.82;;;;;;;;;;5091928;28;20028;-73
2022/11/24 07:57:11;;;;;;;42.30;12.32;;;;;;;;;;5091524;28;20027;-74
2022/11/24 07:59:38;;;;;;;107.65;9.15;;;;;;;;;;5077792;28;20020;-74
2022/11/24 08:02:04;;;;;;;38.35;9.40;;;;;;;;;;5075435;28;20041;-74
2022/11/24 08:04:30;;;;;;;56.30;9.40;;;;;;;;;;5083091;28;20028;-74
2022/11/24 08:06:57;;;;;;;30.50;9.27;;;;;;;;;;5078577;28;20026;-74
2022/11/24 08:09:23;;;;;;;38.97;10.38;;;;;;;;;;5091845;28;20313;-74
2022/11/24 08:11:49;;;;;;;72.45;9.68;;;;;;;;;;5095660;28;20023;-74
2022/11/24 08:14:15;;;;;;;42.13;9.32;;;;;;;;;;5073526;28;20028;-74
2022/11/24 08:16:42;;;;;;;47.28;9.80;;;;;;;;;;5089643;28;20020;-74
2022/11/24 08:19:10;;;;;;;61.95;11.90;;;;;;;;;;5078428;28;20028;-74
2022/11/24 08:21:37;;;;;;;53.30;11.63;;;;;;;;;;5089668;28;20024;-74
2022/11/24 08:24:03;;;;;;;56.45;15.02;;;;;;;;;;5091570;28;20491;-74
2022/11/24 08:26:30;;;;;;;64.75;11.30;;;;;;;;;;5091731;28;20419;-73
2022/11/24 08:28:57;;;;;;;56.22;11.73;;;;;;;;;;5073683;28;20028;-74
2022/11/24 08:31:25;;;;;;;56.20;13.02;;;;;;;;;;5091480;28;20030;-74
2022/11/24 08:33:52;;;;;;;34.30;10.82;;;;;;;;;;5093072;28;20042;-74
2022/11/24 08:36:18;;;;;;;55.20;12.30;;;;;;;;;;5097761;28;20034;-74
2022/11/24 08:38:45;;;;;;;37.85;11.70;;;;;;;;;;5064958;28;20428;-74
2022/11/24 08:41:12;;;;;;;40.63;11.63;;;;;;;;;;5094064;28;20028;-74
2022/11/24 08:43:39;;;;;;;45.92;12.13;;;;;;;;;;5095006;28;20485;-74
2022/11/24 08:46:07;;;;;;;41.95;10.52;;;;;;;;;;5074120;28;20037;-74
2022/11/24 08:48:33;;;;;;;40.20;10.98;;;;;;;;;;5093876;28;20035;-74
2022/11/24 08:51:05;;;;;;;58.78;12.30;;;;;;;;;;5077466;28;20081;-74
2022/11/24 08:53:32;;;;;;;27.77;11.30;;;;;;;;;;5075067;28;20027;-74
2022/11/24 08:56:01;;;;;;;27.42;12.32;;;;;;;;;;5058898;28;20024;-73
2022/11/24 08:58:28;;;;;;;28.92;12.30;;;;;;;;;;5095424;28;20108;-74
2022/11/24 09:00:54;;;;;;;28.08;10.93;;;;;;;;;;5099440;28;20503;-74
2022/11/24 09:03:21;;;;;;;31.13;10.30;;;;;;;;;;5102202;28;20036;-74
2022/11/24 09:05:47;;;;;;;26.58;10.63;;;;;;;;;;5095432;28;20046;-74
2022/11/24 09:08:13;;;;;;;22.25;9.88;;;;;;;;;;5095280;28;20035;-74
2022/11/24 09:10:39;;;;;;;29.20;11.05;;;;;;;;;;5095455;28;20027;-74
2022/11/24 09:13:06;;;;;;;29.75;11.63;;;;;;;;;;5095405;28;20013;-74
2022/11/24 09:15:34;;;;;;;27.35;11.30;;;;;;;;;;5095338;28;20016;-74
2022/11/24 09:18:00;;;;;;;27.98;12.52;;;;;;;;;;5095234;28;20362;-74
2022/11/24 09:20:27;;;;;;;29.10;11.43;;;;;;;;;;5095025;28;20027;-74
2022/11/24 09:22:53;;;;;;;25.27;11.73;;;;;;;;;;5095497;28;20046;-74
2022/11/24 09:25:20;;;;;;;30.30;13.00;;;;;;;;;;5094932;28;20514;-74
2022/11/24 09:27:46;;;;;;;34.20;12.68;;;;;;;;;;5094826;28;20499;-74
2022/11/24 09:30:13;;;;;;;31.50;12.15;;;;;;;;;;5095324;28;20016;-74
2022/11/24 09:32:39;;;;;;;33.03;13.43;;;;;;;;;;5094620;28;20032;-73
2022/11/24 09:35:06;;;;;;;27.45;11.95;;;;;;;;;;5086279;28;20028;-74
2022/11/24 09:37:32;;;;;;;27.13;11.68;;;;;;;;;;5094943;28;20522;-74
2022/11/24 09:39:59;;;;;;;33.67;12.68;;;;;;;;;;5094174;28;20495;-73
2022/11/24 09:42:32;;;;;;;33.53;13.90;;;;;;;;;;5074606;28;20043;-74
2022/11/24 09:45:01;;;;;;;34.05;14.18;;;;;;;;;;5074610;28;20415;-74
2022/11/24 09:47:47;;;;;;;31.02;13.43;;;;;;;;;;5074290;28;20024;-74
2022/11/24 09:50:22;;;;;;;29.55;11.25;;;;;;;;;;5074488;28;20209;-74
2022/11/24 09:52:49;;;;;;;35.80;16.67;;;;;;;;;;5082782;28;20016;-73
2022/11/24 09:55:41;;;;;;;23.58;10.90;;;;;;;;;;5094375;28;20039;-74
2022/11/24 09:58:13;;;;;;;32.95;13.15;;;;;;;;;;5012447;28;20041;-74
2022/11/24 10:00:40;;;;;;;32.08;12.45;;;;;;;;;;5012262;28;20529;-74
2022/11/24 10:03:12;;;;;;;31.30;11.95;;;;;;;;;;5011398;28;20565;-74
2022/11/24 10:05:39;;;;;;;24.13;10.50;;;;;;;;;;5009623;28;20021;-74
2022/11/24 10:08:08;;;;;;;22.20;10.05;;;;;;;;;;5008912;28;20040;-73
2022/11/24 10:10:39;;;;;;;23.05;11.18;;;;;;;;;;4999426;28;20525;-74
2022/11/24 10:13:24;;;;;;;22.08;10.35;;;;;;;;;;5011041;28;20029;-75
2022/11/24 10:16:09;;;;;;;22.15;10.88;;;;;;;;;;5012067;28;20052;-74
2022/11/24 10:18:38;;;;;;;24.45;10.23;;;;;;;;;;5011811;28;20109;-74
2022/11/24 10:21:21;;;;;;;24.85;11.57;;;;;;;;;;5011763;28;20022;-75
2022/11/24 10:23:54;;;;;;;28.92;12.27;;;;;;;;;;5010512;28;20037;-74
2022/11/24 10:26:36;;;;;;;22.60;11.63;;;;;;;;;;5011757;28;20029;-74
2022/11/24 10:29:17;;;;;;;22.33;11.88;;;;;;;;;;5011326;28;20521;-75
2022/11/24 10:31:44;;;;;;;26.50;12.25;;;;;;;;;;5011340;28;20514;-75
2022/11/24 10:34:15;;;;;;;21.88;10.85;;;;;;;;;;5023207;28;20029;-74
2022/11/24 10:36:53;;;;;;;23.52;10.75;;;;;;;;;;5093657;28;20012;-74
2022/11/24 10:39:40;;;;;;;27.45;14.30;;;;;;;;;;5093566;28;20431;-74
2022/11/24 10:42:12;;;;;;;36.53;19.25;;;;;;;;;;5011222;28;20041;-75
2022/11/24 10:44:39;;;;;;;36.15;18.45;;;;;;;;;;5011129;28;20458;-74
2022/11/24 10:47:15;;;;;;;37.08;19.10;;;;;;;;;;5010927;28;20503;-74
2022/11/24 10:49:46;;;;;;;39.00;17.85;;;;;;;;;;5011743;28;20038;-74
2022/11/24 10:52:13;;;;;;;34.45;16.75;;;;;;;;;;5011535;28;20042;-74
2022/11/24 10:54:56;;;;;;;29.98;15.63;;;;;;;;;;5011024;28;20486;-74
2022/11/24 10:57:28;;;;;;;27.50;13.75;;;;;;;;;;4993852;28;20030;-74
2022/11/24 10:59:55;;;;;;;27.13;13.00;;;;;;;;;;5010936;28;20414;-74
2022/11/24 11:02:38;;;;;;;28.85;14.07;;;;;;;;;;5010739;28;20042;-74
2022/11/24 11:05:23;;;;;;;30.90;14.07;;;;;;;;;;5011143;28;20033;-74
2022/11/24 11:07:49;;;;;;;29.02;13.80;;;;;;;;;;5010798;28;20025;-74
2022/11/24 11:10:18;;;;;;;24.08;13.52;;;;;;;;;;5010538;28;20120;-74
2022/11/24 11:12:44;;;;;;;25.10;13.55;;;;;;;;;;5011066;28;20095;-74
2022/11/24 11:15:27;;;;;;;30.52;13.70;;;;;;;;;;5010544;28;20026;-74
2022/11/24 11:17:56;;;;;;;21.92;10.70;;;;;;;;;;5010371;28;20028;-74
2022/11/24 11:20:30;;;;;;;22.30;11.43;;;;;;;;;;5091618;28;20028;-74
2022/11/24 11:22:58;;;;;;;19.83;9.60;;;;;;;;;;5092807;28;20032;-73
2022/11/24 11:25:29;;;;;;;22.95;10.20;;;;;;;;;;5093386;28;20016;-72
2022/11/24 11:28:14;;;;;;;22.88;11.70;;;;;;;;;;5091865;28;20028;-74
2022/11/24 11:30:40;;;;;;;19.42;9.18;;;;;;;;;;5092560;28;20038;-74
2022/11/24 11:33:18;;;;;;;26.83;11.38;;;;;;;;;;5092682;28;20481;-74
2022/11/24 11:35:45;;;;;;;20.25;9.93;;;;;;;;;;5092852;28;20388;-74
2022/11/24 11:38:11;;;;;;;27.58;9.88;;;;;;;;;;5092781;28;20386;-74
2022/11/24 11:40:41;;;;;;;23.35;10.07;;;;;;;;;;5083775;28;20021;-74
2022/11/24 11:43:16;;;;;;;17.58;8.25;;;;;;;;;;5072497;28;20047;-74
2022/11/24 11:45:44;;;;;;;19.27;9.02;;;;;;;;;;5072023;28;20023;-74
2022/11/24 11:48:14;;;;;;;26.55;12.43;;;;;;;;;;5072397;28;20021;-74
2022/11/24 11:50:43;;;;;;;22.80;11.40;;;;;;;;;;5072576;28;20470;-74
2022/11/24 11:53:15;;;;;;;21.05;10.25;;;;;;;;;;5072161;28;20384;-74
2022/11/24 11:55:41;;;;;;;21.10;9.23;;;;;;;;;;5072324;28;20028;-74
2022/11/24 11:58:32;;;;;;;17.02;10.13;;;;;;;;;;5072421;28;20416;-74
2022/11/24 12:01:04;;;;;;;15.80;7.07;;;;;;;;;;5072505;28;20158;-74
2022/11/24 12:03:37;;;;;;;14.05;7.03;;;;;;;;;;5072228;28;20037;-75
2022/11/24 12:06:03;;;;;;;18.80;7.28;;;;;;;;;;5072423;28;20082;-74
2022/11/24 12:08:53;;;;;;;16.73;7.63;;;;;;;;;;5072102;28;20028;-74
2022/11/24 12:11:33;;;;;;;18.27;7.57;;;;;;;;;;5072513;28;20138;-74
2022/11/24 12:14:05;;;;;;;16.90;8.50;;;;;;;;;;5071948;28;20485;-74
2022/11/24 12:16:32;;;;;;;20.67;9.63;;;;;;;;;;5071929;28;20028;-74
2022/11/24 12:19:07;;;;;;;18.73;8.43;;;;;;;;;;5072333;28;20020;-75
2022/11/24 12:21:40;;;;;;;12.10;6.47;;;;;;;;;;5072185;28;20481;-75
2022/11/24 12:24:17;;;;;;;14.82;6.40;;;;;;;;;;5072139;28;20036;-75
2022/11/24 12:26:56;;;;;;;20.45;5.88;;;;;;;;;;5072073;28;20021;-72
2022/11/24 12:29:45;;;;;;;13.43;6.20;;;;;;;;;;5071652;28;20025;-73
2022/11/24 12:32:15;;;;;;;9.60;5.47;;;;;;;;;;5064426;28;20039;-72
2022/11/24 12:34:44;;;;;;;14.70;6.20;;;;;;;;;;5072131;28;20035;-72
2022/11/24 12:37:10;;;;;;;12.18;5.78;;;;;;;;;;5073611;28;20124;-72
2022/11/24 12:40:09;;;;;;;36.33;21.02;;;;;;;;;;5069956;28;20047;-71
2022/11/24 12:42:45;;;;;;;14.48;5.28;;;;;;;;;;4995477;28;20066;-73
2022/11/24 12:45:14;;;;;;;12.27;4.45;;;;;;;;;;5009807;28;20046;-72
2022/11/24 12:48:03;;;;;;;10.00;4.10;;;;;;;;;;5009715;28;20030;-73
2022/11/24 12:50:30;;;;;;;10.70;4.27;;;;;;;;;;5010041;28;20025;-73
2022/11/24 12:53:03;;;;;;;13.20;3.97;;;;;;;;;;5009959;28;20034;-73
2022/11/24 12:55:32;;;;;;;9.27;4.47;;;;;;;;;;5010174;28;20129;-75
2022/11/24 12:57:58;;;;;;;8.73;3.15;;;;;;;;;;5009749;28;20034;-74
2022/11/24 13:00:25;;;;;;;12.13;3.17;;;;;;;;;;4978957;28;20027;-72
2022/11/24 13:03:03;;;;;;;10.90;3.42;;;;;;;;;;4990666;28;20039;-72
2022/11/24 13:05:29;;;;;;;9.85;3.95;;;;;;;;;;4997209;28;20096;-72
2022/11/24 13:07:57;;;;;;;16.48;3.75;;;;;;;;;;4988026;28;20023;-72
2022/11/24 13:10:23;;;;;;;9.38;4.05;;;;;;;;;;5009188;28;20036;-72
2022/11/24 13:13:00;;;;;;;8.68;3.50;;;;;;;;;;4994616;28;20038;-72
2022/11/24 13:15:27;;;;;;;11.70;4.38;;;;;;;;;;4997635;28;20038;-72
2022/11/24 13:17:53;;;;;;;11.73;3.60;;;;;;;;;;5030825;28;20033;-72
2022/11/24 13:20:20;;;;;;;8.20;2.67;;;;;;;;;;5071119;28;20024;-72
2022/11/24 13:22:46;;;;;;;10.45;3.38;;;;;;;;;;5069880;28;20489;-72
2022/11/24 13:25:14;;;;;;;10.70;3.47;;;;;;;;;;5068404;28;20392;-73
2022/11/24 13:27:42;;;;;;;9.90;4.07;;;;;;;;;;5076111;28;20057;-72
2022/11/24 13:30:27;;;;;;;11.45;4.50;;;;;;;;;;5074780;28;20106;-73
2022/11/24 13:32:59;;;;;;;13.27;4.70;;;;;;;;;;5073845;28;20030;-73
2022/11/24 13:35:25;;;;;;;11.18;4.40;;;;;;;;;;5074595;28;20023;-73
2022/11/24 13:37:52;;;;;;;9.82;3.92;;;;;;;;;;5073385;28;20718;-73
2022/11/24 13:40:21;;;;;;;12.13;4.18;;;;;;;;;;5073978;28;20031;-73
2022/11/24 13:43:07;;;;;;;9.40;3.63;;;;;;;;;;5074581;28;20044;-73
2022/11/24 13:45:48;;;;;;;11.40;4.47;;;;;;;;;;5057129;28;20031;-73
2022/11/24 13:48:20;;;;;;;10.93;3.90;;;;;;;;;;5074516;28;20033;-73
2022/11/24 13:50:49;;;;;;;9.00;3.90;;;;;;;;;;5074340;28;20029;-73
2022/11/24 13:53:18;;;;;;;8.65;3.47;;;;;;;;;;5074112;28;20028;-73
2022/11/24 13:55:58;;;;;;;8.38;3.70;;;;;;;;;;5073954;28;20028;-74
2022/11/24 13:58:24;;;;;;;10.32;3.83;;;;;;;;;;5074285;28;20029;-73
2022/11/24 14:01:03;;;;;;;10.32;3.60;;;;;;;;;;5074203;28;20032;-73
2022/11/24 14:03:31;;;;;;;11.00;3.15;;;;;;;;;;5074060;28;20040;-73
2022/11/24 14:05:58;;;;;;;10.77;3.22;;;;;;;;;;5071783;28;20019;-73
2022/11/24 14:08:26;;;;;;;6.85;2.75;;;;;;;;;;5061538;28;20016;-73
2022/11/24 14:10:53;;;;;;;13.55;3.58;;;;;;;;;;5055902;28;20032;-73
2022/11/24 14:13:22;;;;;;;7.90;2.00;;;;;;;;;;5073667;28;20106;-73
2022/11/24 14:16:07;;;;;;;6.35;2.28;;;;;;;;;;5074056;28;20024;-73
2022/11/24 14:18:34;;;;;;;5.18;1.90;;;;;;;;;;5073790;28;20021;-73
2022/11/24 14:21:15;;;;;;;7.68;3.08;;;;;;;;;;5063607;28;20015;-73
2022/11/24 14:23:41;;;;;;;;;;;;;;;;;;5073734;28;20037;-73
2022/11/24 14:26:14;;;;;;;7.45;2.03;;;;;;;;;;5068305;28;20331;-72
2022/11/24 14:28:40;;;;;;;8.18;1.95;;;;;;;;;;5073342;28;20025;-71
2022/11/24 14:31:18;;;;;;;7.65;1.52;;;;;;;;;;5065465;28;20021;-73
2022/11/24 14:33:45;;;;;;;6.20;1.98;;;;;;;;;;5058132;28;20031;-73
2022/11/24 14:36:15;;;;;;;9.07;1.90;;;;;;;;;;5073630;28;20034;-73
2022/11/24 14:38:42;;;;;;;7.78;1.48;;;;;;;;;;5065157;28;20050;-72
2022/11/24 14:41:34;;;;;;;8.48;1.63;;;;;;;;;;5083668;28;20030;-73
2022/11/24 14:44:14;;;;;;;8.63;1.73;;;;;;;;;;5069930;28;20495;-73